createdAt,value
2023-02-10T00:01:37.908Z,67.20
2023-02-10T00:04:05.748Z,66.70
2023-02-10T00:06:34.201Z,67.20
2023-02-10T00:09:05.120Z,66.50
2023-02-10T00:11:51.087Z,66.20
2023-02-10T00:14:20.161Z,66.70
2023-02-10T00:16:51.740Z,67.20
2023-02-10T00:19:24.427Z,67.40
2023-02-10T00:21:52.615Z,67.20
2023-02-10T00:24:21.955Z,67.20
2023-02-10T00:26:49.404Z,67.60
2023-02-10T00:29:17.571Z,67.80
2023-02-10T00:31:46.102Z,68.00
2023-02-10T00:34:18.640Z,68.30
2023-02-10T00:36:46.208Z,67.70
2023-02-10T00:39:16.908Z,68.00
2023-02-10T00:41:44.264Z,68.10
2023-02-10T00:44:11.942Z,68.00
2023-02-10T00:46:38.948Z,68.10
2023-02-10T00:49:07.175Z,68.50
2023-02-10T00:51:34.275Z,68.50
2023-02-10T00:54:01.330Z,68.80
2023-02-10T00:56:29.139Z,68.90
2023-02-10T00:58:56.132Z,68.50
2023-02-10T01:01:24.613Z,68.70
2023-02-10T01:03:51.750Z,68.90
2023-02-10T01:06:18.946Z,68.80
2023-02-10T01:08:45.917Z,69.50
2023-02-10T01:11:15.362Z,69.60
2023-02-10T01:13:43.798Z,70.30
2023-02-10T01:16:17.503Z,70.90
2023-02-10T01:18:45.967Z,71.00
2023-02-10T01:21:19.994Z,71.00
2023-02-10T01:23:48.956Z,71.00
2023-02-10T01:26:17.018Z,71.80
2023-02-10T01:28:45.136Z,72.10
2023-02-10T01:31:21.338Z,71.70
2023-02-10T01:33:53.633Z,72.30
2023-02-10T01:36:25.281Z,73.20
2023-02-10T01:38:53.429Z,73.70
2023-02-10T01:41:24.601Z,73.90
2023-02-10T01:44:06.563Z,74.70
2023-02-10T01:46:36.545Z,74.60
2023-02-10T01:49:15.370Z,75.20
2023-02-10T01:52:15.051Z,75.40
2023-02-10T01:54:58.725Z,75.60
2023-02-10T01:57:26.598Z,75.70
2023-02-10T01:59:54.204Z,75.70
2023-02-10T02:02:22.427Z,76.50
2023-02-10T02:05:01.481Z,77.10
2023-02-10T02:07:38.295Z,77.00
2023-02-10T02:10:07.788Z,77.50
2023-02-10T02:13:12.187Z,77.50
2023-02-10T02:16:05.939Z,78.10
2023-02-10T02:18:51.542Z,78.00
2023-02-10T02:21:51.505Z,78.40
2023-02-10T02:24:46.673Z,78.50
2023-02-10T02:28:02.863Z,78.30
2023-02-10T02:30:53.782Z,77.40
2023-02-10T02:33:41.602Z,77.60
2023-02-10T02:36:24.273Z,77.40
2023-02-10T02:38:51.427Z,77.60
2023-02-10T02:41:26.774Z,78.70
2023-02-10T02:43:56.226Z,79.50
2023-02-10T02:47:02.781Z,78.90
2023-02-10T02:49:57.780Z,79.80
2023-02-10T02:52:57.927Z,78.50
2023-02-10T02:55:54.570Z,78.50
2023-02-10T02:58:48.957Z,79.40
2023-02-10T03:01:29.979Z,79.20
2023-02-10T03:03:59.688Z,78.00
2023-02-10T03:06:27.188Z,78.70
2023-02-10T03:08:54.981Z,81.10
2023-02-10T03:11:24.043Z,81.20
2023-02-10T03:13:51.197Z,81.00
2023-02-10T03:16:18.362Z,81.60
2023-02-10T03:18:45.331Z,82.00
2023-02-10T03:21:12.524Z,81.90
2023-02-10T03:23:39.476Z,81.00
2023-02-10T03:26:07.177Z,82.00
2023-02-10T03:28:34.222Z,81.80
2023-02-10T03:31:09.068Z,82.80
2023-02-10T03:33:36.600Z,82.70
2023-02-10T03:36:04.422Z,82.50
2023-02-10T03:38:31.515Z,83.10
2023-02-10T03:40:58.648Z,84.50
2023-02-10T03:43:25.684Z,84.90
2023-02-10T03:45:52.847Z,85.50
2023-02-10T03:48:19.931Z,85.50
2023-02-10T03:50:49.123Z,85.80
2023-02-10T03:53:16.209Z,86.40
2023-02-10T03:55:43.570Z,87.20
2023-02-10T03:58:10.520Z,88.10
2023-02-10T04:00:37.769Z,87.50
2023-02-10T04:03:04.763Z,87.40
2023-02-10T04:05:31.729Z,87.30
2023-02-10T04:07:58.823Z,87.90
2023-02-10T04:10:25.739Z,88.00
2023-02-10T04:12:53.021Z,88.90
2023-02-10T04:15:20.348Z,89.00
2023-02-10T04:17:47.864Z,89.10
2023-02-10T04:20:15.942Z,90.30
2023-02-10T04:22:44.392Z,91.00
2023-02-10T04:25:12.000Z,91.40
2023-02-10T04:27:39.191Z,90.80
2023-02-10T04:30:07.415Z,91.70
2023-02-10T04:32:34.580Z,91.70
2023-02-10T04:35:02.840Z,92.20
2023-02-10T04:37:30.027Z,91.80
2023-02-10T04:39:57.280Z,92.00
2023-02-10T04:42:31.131Z,92.80
2023-02-10T04:45:01.135Z,92.80
2023-02-10T04:47:30.121Z,93.10
2023-02-10T04:49:57.234Z,92.90
2023-02-10T04:52:24.640Z,91.90
2023-02-10T04:54:51.755Z,92.20
2023-02-10T04:57:18.732Z,92.70
2023-02-10T04:59:45.701Z,91.90
2023-02-10T05:02:12.919Z,92.40
2023-02-10T05:04:40.043Z,93.20
2023-02-10T05:07:07.186Z,94.20
2023-02-10T05:09:34.085Z,93.80
2023-02-10T05:12:01.077Z,94.70
2023-02-10T05:14:28.461Z,94.30
2023-02-10T05:16:55.675Z,94.50
2023-02-10T05:19:22.833Z,94.40
2023-02-10T05:21:49.788Z,94.70
2023-02-10T05:24:17.486Z,95.00
2023-02-10T05:26:44.569Z,95.90
2023-02-10T05:29:11.835Z,94.40
2023-02-10T05:31:38.992Z,95.20
2023-02-10T05:34:06.192Z,95.50
2023-02-10T05:36:33.627Z,95.30
2023-02-10T05:39:19.835Z,95.30
2023-02-10T05:41:46.821Z,94.70
2023-02-10T05:44:13.850Z,95.80
2023-02-10T05:46:43.012Z,95.40
2023-02-10T05:49:11.159Z,96.30
2023-02-10T05:51:38.148Z,96.70
2023-02-10T05:54:05.616Z,96.80
2023-02-10T05:56:32.791Z,96.80
2023-02-10T05:59:00.662Z,97.50
2023-02-10T06:01:28.703Z,98.30
2023-02-10T06:03:56.642Z,98.10
2023-02-10T06:06:24.324Z,98.40
2023-02-10T06:08:51.628Z,98.50
2023-02-10T06:11:18.792Z,99.00
2023-02-10T06:13:45.715Z,98.50
2023-02-10T06:16:13.070Z,98.10
2023-02-10T06:18:40.135Z,98.20
2023-02-10T06:21:07.402Z,98.90
2023-02-10T06:23:34.362Z,98.80
2023-02-10T06:26:01.947Z,98.40
2023-02-10T06:28:29.291Z,97.40
2023-02-10T06:30:56.867Z,98.20
2023-02-10T06:33:24.037Z,99.10
2023-02-10T06:35:51.493Z,99.90
2023-02-10T06:38:18.671Z,99.90
2023-02-10T06:40:45.852Z,99.90
2023-02-10T06:43:13.025Z,99.90
2023-02-10T06:45:40.220Z,99.90
2023-02-10T06:48:10.004Z,99.90
2023-02-10T06:50:39.331Z,99.90
2023-02-10T06:53:07.875Z,99.90
2023-02-10T06:55:36.111Z,99.90
2023-02-10T06:58:04.492Z,99.90
2023-02-10T07:00:35.132Z,99.90
2023-02-10T07:03:02.106Z,99.90
2023-02-10T07:05:29.460Z,99.90
2023-02-10T07:07:56.445Z,99.90
2023-02-10T07:10:23.451Z,99.90
2023-02-10T07:12:51.670Z,99.90
2023-02-10T07:15:19.596Z,99.70
2023-02-10T07:17:47.225Z,99.60
2023-02-10T07:20:14.253Z,99.90
2023-02-10T07:22:42.623Z,99.90
2023-02-10T07:25:11.456Z,99.90
2023-02-10T07:27:39.687Z,99.90
2023-02-10T07:30:07.911Z,99.90
2023-02-10T07:32:35.067Z,99.90
2023-02-10T07:35:02.230Z,99.90
2023-02-10T07:37:30.489Z,99.70
2023-02-10T07:39:58.268Z,99.70
2023-02-10T07:42:25.525Z,99.60
2023-02-10T07:44:52.974Z,99.30
2023-02-10T07:47:20.076Z,99.60
2023-02-10T07:49:47.002Z,99.10
2023-02-10T07:52:14.162Z,97.90
2023-02-10T07:54:42.359Z,96.80
2023-02-10T07:57:09.829Z,98.20
2023-02-10T07:59:36.901Z,99.20
2023-02-10T08:02:05.271Z,99.10
2023-02-10T08:04:33.288Z,99.10
2023-02-10T08:07:00.414Z,98.30
2023-02-10T08:09:27.439Z,98.40
2023-02-10T08:11:54.553Z,99.10
2023-02-10T08:14:21.603Z,99.40
2023-02-10T08:16:49.698Z,98.50
2023-02-10T08:19:16.704Z,98.40
2023-02-10T08:21:43.912Z,98.80
2023-02-10T08:24:11.186Z,98.30
2023-02-10T08:26:38.554Z,97.70
2023-02-10T08:29:05.691Z,97.00
2023-02-10T08:31:32.714Z,98.10
2023-02-10T08:33:59.770Z,97.40
2023-02-10T08:36:27.036Z,96.70
2023-02-10T08:38:54.550Z,97.10
2023-02-10T08:41:21.554Z,98.10
2023-02-10T08:43:48.917Z,97.90
2023-02-10T08:46:16.247Z,97.70
2023-02-10T08:48:43.525Z,97.20
2023-02-10T08:51:14.064Z,96.50
2023-02-10T08:53:41.294Z,97.20
2023-02-10T08:56:19.273Z,96.90
2023-02-10T08:58:47.726Z,96.80
2023-02-10T09:01:25.206Z,96.70
2023-02-10T09:03:55.378Z,96.50
2023-02-10T09:06:31.381Z,97.20
2023-02-10T09:09:00.430Z,96.40
2023-02-10T09:11:28.334Z,95.40
2023-02-10T09:13:55.588Z,95.50
2023-02-10T09:16:22.514Z,95.80
2023-02-10T09:18:49.738Z,96.80
2023-02-10T09:21:18.368Z,97.10
2023-02-10T09:23:45.557Z,96.80
2023-02-10T09:26:13.001Z,96.40
2023-02-10T09:28:40.433Z,96.60
2023-02-10T09:31:10.933Z,96.50
2023-02-10T09:33:38.498Z,96.40
2023-02-10T09:36:16.012Z,96.50
2023-02-10T09:38:49.873Z,97.20
2023-02-10T09:41:35.556Z,96.30
2023-02-10T09:44:35.840Z,97.10
2023-02-10T09:47:46.913Z,96.70
2023-02-10T09:51:00.626Z,96.60
2023-02-10T09:53:31.488Z,96.00
2023-02-10T09:56:05.683Z,95.80
2023-02-10T09:58:49.609Z,96.90
2023-02-10T10:01:38.268Z,97.10
2023-02-10T10:04:20.108Z,96.40
2023-02-10T10:07:12.300Z,96.20
2023-02-10T10:09:47.186Z,98.00
2023-02-10T10:12:21.266Z,97.30
2023-02-10T10:14:50.835Z,97.50
2023-02-10T10:18:07.292Z,97.70
2023-02-10T10:21:03.694Z,97.40
2023-02-10T10:24:38.598Z,97.10
2023-02-10T10:27:58.451Z,96.40
2023-02-10T10:31:03.951Z,97.20
2023-02-10T10:33:57.824Z,97.20
2023-02-10T10:36:49.337Z,96.90
2023-02-10T10:39:44.525Z,96.90
2023-02-10T10:42:50.078Z,96.30
2023-02-10T10:45:26.207Z,96.70
2023-02-10T10:48:27.865Z,97.70
2023-02-10T10:51:04.231Z,95.90
2023-02-10T10:53:57.608Z,95.50
2023-02-10T10:57:04.763Z,96.80
2023-02-10T10:59:47.270Z,96.60
2023-02-10T11:02:24.884Z,96.30
2023-02-10T11:05:16.380Z,94.70
2023-02-10T11:07:51.271Z,93.70
2023-02-10T11:10:54.333Z,94.80
2023-02-10T11:13:33.615Z,94.10
2023-02-10T11:16:16.778Z,95.10
2023-02-10T11:19:00.996Z,93.70
2023-02-10T11:21:41.824Z,91.20
2023-02-10T11:24:33.100Z,89.20
2023-02-10T11:27:17.949Z,88.30
2023-02-10T11:29:59.385Z,87.50
2023-02-10T11:32:34.579Z,87.80
2023-02-10T11:35:09.825Z,88.00
2023-02-10T11:37:40.977Z,86.60
2023-02-10T11:40:28.046Z,85.50
2023-02-10T11:43:00.704Z,85.90
2023-02-10T11:45:33.533Z,84.20
2023-02-10T11:48:16.964Z,84.60
2023-02-10T11:50:44.886Z,84.60
2023-02-10T11:53:31.513Z,84.80
2023-02-10T11:57:10.795Z,84.70
2023-02-10T12:00:11.125Z,83.20
2023-02-10T12:03:07.028Z,84.80
2023-02-10T12:05:54.227Z,84.10
2023-02-10T12:09:07.462Z,84.80
2023-02-10T12:11:52.156Z,85.10
2023-02-10T12:15:08.137Z,86.70
2023-02-10T12:17:54.499Z,86.40
2023-02-10T12:21:09.026Z,86.00
2023-02-10T12:24:10.769Z,86.70
2023-02-10T12:26:52.981Z,87.50
2023-02-10T12:29:46.509Z,86.70
2023-02-10T12:32:34.592Z,87.00
2023-02-10T12:35:37.498Z,86.60
2023-02-10T12:38:34.628Z,84.10
2023-02-10T12:41:24.823Z,82.60
2023-02-10T12:44:35.978Z,82.70
2023-02-10T12:47:12.186Z,82.50
2023-02-10T12:50:32.744Z,83.00
2023-02-10T12:53:12.687Z,83.70
2023-02-10T12:56:21.261Z,83.00
2023-02-10T12:59:03.304Z,83.80
2023-02-10T13:01:50.899Z,84.30
2023-02-10T13:04:36.844Z,84.80
2023-02-10T13:07:59.159Z,83.00
2023-02-10T13:10:39.384Z,83.10
2023-02-10T13:13:18.422Z,84.00
2023-02-10T13:16:24.937Z,83.90
2023-02-10T13:19:41.902Z,82.80
2023-02-10T13:22:38.248Z,83.20
2023-02-10T13:25:59.507Z,83.40
2023-02-10T13:28:37.453Z,84.80
2023-02-10T13:31:32.480Z,85.00
2023-02-10T13:34:21.248Z,84.60
2023-02-10T13:37:20.675Z,84.00
2023-02-10T13:39:58.961Z,84.50
2023-02-10T13:42:46.336Z,85.40
2023-02-10T13:45:13.364Z,86.00
2023-02-10T13:47:46.284Z,85.00
2023-02-10T13:50:53.575Z,85.20
2023-02-10T13:53:35.610Z,84.70
2023-02-10T13:56:21.011Z,84.70
2023-02-10T13:59:18.584Z,84.00
2023-02-10T14:02:23.803Z,84.50
2023-02-10T14:04:55.359Z,86.20
2023-02-10T14:07:30.334Z,83.90
2023-02-10T14:10:32.552Z,84.10
2023-02-10T14:13:20.032Z,84.60
2023-02-10T14:16:32.567Z,82.80
2023-02-10T14:19:20.800Z,82.40
2023-02-10T14:21:50.150Z,81.80
2023-02-10T14:24:49.396Z,82.30
2023-02-10T14:27:20.944Z,80.50
2023-02-10T14:30:29.772Z,81.40
2023-02-10T14:32:58.017Z,81.80
2023-02-10T14:35:29.886Z,83.00
2023-02-10T14:38:00.320Z,81.90
2023-02-10T14:40:32.581Z,83.40
2023-02-10T14:43:05.043Z,82.60
2023-02-10T14:45:32.393Z,80.20
2023-02-10T14:48:01.661Z,78.50
2023-02-10T14:50:39.597Z,83.30
2023-02-10T14:53:08.318Z,85.20
2023-02-10T14:55:41.996Z,85.80
2023-02-10T14:58:20.020Z,86.60
2023-02-10T15:01:07.475Z,86.50
2023-02-10T15:03:35.558Z,86.00
2023-02-10T15:06:03.457Z,85.90
2023-02-10T15:08:50.881Z,86.40
2023-02-10T15:12:12.692Z,86.70
2023-02-10T15:15:13.787Z,87.70
2023-02-10T15:17:52.676Z,87.60
2023-02-10T15:20:30.742Z,87.80
2023-02-10T15:22:57.801Z,88.10
2023-02-10T15:25:31.136Z,88.20
2023-02-10T15:28:26.384Z,88.90
2023-02-10T15:31:14.566Z,88.90
2023-02-10T15:34:25.229Z,88.70
2023-02-10T15:37:06.070Z,89.40
2023-02-10T15:39:40.173Z,89.00
2023-02-10T15:42:32.379Z,89.60
2023-02-10T15:45:26.195Z,90.50
2023-02-10T15:48:07.210Z,90.70
2023-02-10T15:50:37.189Z,90.70
2023-02-10T15:53:12.510Z,90.80
2023-02-10T15:55:42.727Z,91.30
2023-02-10T15:58:13.704Z,90.90
2023-02-10T16:00:44.815Z,91.20
2023-02-10T16:03:15.303Z,91.60
2023-02-10T16:05:42.931Z,91.80
2023-02-10T16:08:29.522Z,91.40
2023-02-10T16:11:02.340Z,90.90
2023-02-10T16:13:29.963Z,91.70
2023-02-10T16:15:57.597Z,91.70
2023-02-10T16:18:30.062Z,93.10
2023-02-10T16:21:00.894Z,93.00
2023-02-10T16:23:57.244Z,92.50
2023-02-10T16:26:25.325Z,91.90
2023-02-10T16:28:53.802Z,92.80
2023-02-10T16:31:22.226Z,93.90
2023-02-10T16:33:50.368Z,94.20
2023-02-10T16:36:18.957Z,94.70
2023-02-10T16:38:51.143Z,95.20
2023-02-10T16:41:20.282Z,94.80
2023-02-10T16:43:47.595Z,95.70
2023-02-10T16:46:18.754Z,95.20
2023-02-10T16:48:47.634Z,95.50
2023-02-10T16:51:15.309Z,95.60
2023-02-10T16:53:42.433Z,96.00
2023-02-10T16:56:18.284Z,96.90
2023-02-10T16:58:45.438Z,97.70
2023-02-10T17:01:12.820Z,97.90
2023-02-10T17:03:40.262Z,98.20
2023-02-10T17:06:10.238Z,98.40
2023-02-10T17:08:37.176Z,98.20
2023-02-10T17:11:06.548Z,98.80
2023-02-10T17:13:33.455Z,97.50
2023-02-10T17:16:00.486Z,97.30
2023-02-10T17:18:30.618Z,97.90
2023-02-10T17:20:57.820Z,98.90
2023-02-10T17:23:27.145Z,99.60
2023-02-10T17:25:54.229Z,99.70
2023-02-10T17:28:21.334Z,98.90
2023-02-10T17:30:48.478Z,99.30
2023-02-10T17:33:28.519Z,99.70
2023-02-10T17:35:56.896Z,99.50
2023-02-10T17:38:59.403Z,99.10
2023-02-10T17:41:31.562Z,97.30
2023-02-10T17:44:01.455Z,97.90
2023-02-10T17:46:28.942Z,98.90
2023-02-10T17:48:58.080Z,98.70
2023-02-10T17:51:25.310Z,97.50
2023-02-10T17:53:57.984Z,97.90
2023-02-10T17:56:25.042Z,94.50
2023-02-10T17:58:52.269Z,94.30
2023-02-10T18:01:32.032Z,93.40
2023-02-10T18:03:59.754Z,93.30
2023-02-10T18:06:29.407Z,93.00
2023-02-10T18:08:59.781Z,94.30
2023-02-10T18:11:30.117Z,93.90
2023-02-10T18:13:58.862Z,94.80
2023-02-10T18:16:26.066Z,94.60
2023-02-10T18:18:53.452Z,94.30
2023-02-10T18:21:24.324Z,93.20
2023-02-10T18:23:52.700Z,94.10
2023-02-10T18:26:21.241Z,95.20
2023-02-10T18:28:50.878Z,95.70
2023-02-10T18:31:22.035Z,96.80
2023-02-10T18:33:49.323Z,97.50
2023-02-10T18:36:21.998Z,98.30
2023-02-10T18:38:50.288Z,97.80
2023-02-10T18:41:17.746Z,98.50
2023-02-10T18:43:48.132Z,98.00
2023-02-10T18:46:17.829Z,97.90
2023-02-10T18:48:47.116Z,98.30
2023-02-10T18:51:17.505Z,98.40
2023-02-10T18:53:44.793Z,98.70
2023-02-10T18:56:19.953Z,98.50
2023-02-10T18:58:47.267Z,98.10
2023-02-10T19:01:21.313Z,98.10
2023-02-10T19:03:49.321Z,97.70
2023-02-10T19:06:18.804Z,96.10
2023-02-10T19:08:48.222Z,96.50
2023-02-10T19:11:16.303Z,95.40
2023-02-10T19:13:43.666Z,94.50
2023-02-10T19:16:13.040Z,94.50
2023-02-10T19:18:40.881Z,94.10
2023-02-10T19:21:11.962Z,94.10
2023-02-10T19:23:43.162Z,93.80
2023-02-10T19:26:12.120Z,93.20
2023-02-10T19:28:42.568Z,91.10
2023-02-10T19:31:13.459Z,90.00
2023-02-10T19:33:47.821Z,89.80
2023-02-10T19:36:21.424Z,89.30
2023-02-10T19:38:49.112Z,91.50
2023-02-10T19:41:27.016Z,93.60
2023-02-10T19:43:55.436Z,94.40
2023-02-10T19:46:25.463Z,94.00
2023-02-10T19:48:53.143Z,94.40
2023-02-10T19:51:24.746Z,94.20
2023-02-10T19:53:54.209Z,93.30
2023-02-10T19:56:21.607Z,92.70
2023-02-10T19:58:48.867Z,91.00
2023-02-10T20:01:19.979Z,91.20
2023-02-10T20:03:56.662Z,92.00
2023-02-10T20:06:33.412Z,92.00
2023-02-10T20:09:01.272Z,91.60
2023-02-10T20:11:29.060Z,91.90
2023-02-10T20:13:56.695Z,91.60
2023-02-10T20:16:24.459Z,91.20
2023-02-10T20:18:52.054Z,90.80
2023-02-10T20:21:19.246Z,90.90
2023-02-10T20:23:46.263Z,90.30
2023-02-10T20:26:16.236Z,89.80
2023-02-10T20:28:43.954Z,89.70
2023-02-10T20:31:14.353Z,89.80
2023-02-10T20:33:46.070Z,89.10
2023-02-10T20:36:17.931Z,89.60
2023-02-10T20:38:48.637Z,88.70
2023-02-10T20:41:21.660Z,87.60
2023-02-10T20:43:50.681Z,87.50
2023-02-10T20:46:18.924Z,87.30
2023-02-10T20:48:49.242Z,88.20
2023-02-10T20:51:17.818Z,88.60
2023-02-10T20:53:46.885Z,88.00
2023-02-10T20:56:18.849Z,88.80
2023-02-10T20:58:46.554Z,88.90
2023-02-10T21:01:18.881Z,86.60
2023-02-10T21:03:46.890Z,86.10
2023-02-10T21:06:25.247Z,87.30
2023-02-10T21:08:57.240Z,86.20
2023-02-10T21:11:29.263Z,87.00
2023-02-10T21:13:57.626Z,85.40
2023-02-10T21:16:24.955Z,85.40
2023-02-10T21:18:52.087Z,86.50
2023-02-10T21:21:21.321Z,86.50
2023-02-10T21:23:50.326Z,86.10
2023-02-10T21:26:18.313Z,88.20
2023-02-10T21:28:46.061Z,88.60
2023-02-10T21:31:24.570Z,88.40
2023-02-10T21:33:52.524Z,89.00
2023-02-10T21:36:25.990Z,90.10
2023-02-10T21:38:57.302Z,89.60
2023-02-10T21:41:42.388Z,88.80
2023-02-10T21:44:18.044Z,88.90
2023-02-10T21:46:53.035Z,89.50
2023-02-10T21:49:23.589Z,89.70
2023-02-10T21:51:52.628Z,89.60
2023-02-10T21:54:23.180Z,89.00
2023-02-10T21:56:51.677Z,89.30
2023-02-10T21:59:19.946Z,89.50
2023-02-10T22:01:50.327Z,90.10
2023-02-10T22:04:27.436Z,89.30
2023-02-10T22:06:54.364Z,89.20
2023-02-10T22:09:21.706Z,89.00
2023-02-10T22:11:51.567Z,88.60
2023-02-10T22:14:19.333Z,88.90
2023-02-10T22:16:48.760Z,88.40
2023-02-10T22:19:17.460Z,88.00
2023-02-10T22:21:44.933Z,87.80
2023-02-10T22:24:13.675Z,87.90
2023-02-10T22:26:41.274Z,86.80
2023-02-10T22:29:08.554Z,86.90
2023-02-10T22:31:37.190Z,87.10
2023-02-10T22:34:06.791Z,85.50
2023-02-10T22:36:35.885Z,85.40
2023-02-10T22:39:03.637Z,85.50
2023-02-10T22:41:33.499Z,84.10
2023-02-10T22:44:12.646Z,83.80
2023-02-10T22:46:44.512Z,84.60
2023-02-10T22:49:13.780Z,83.70
2023-02-10T22:51:48.573Z,83.00
2023-02-10T22:54:21.895Z,82.40
2023-02-10T22:56:49.115Z,81.80
2023-02-10T22:59:21.553Z,83.40
2023-02-10T23:01:48.765Z,84.40
2023-02-10T23:04:18.361Z,83.60
2023-02-10T23:06:47.018Z,82.60
2023-02-10T23:09:15.670Z,83.40
2023-02-10T23:11:52.670Z,84.90
2023-02-10T23:14:21.657Z,84.90
2023-02-10T23:16:54.666Z,84.50
2023-02-10T23:19:25.868Z,86.20
2023-02-10T23:21:52.864Z,86.60
2023-02-10T23:24:20.453Z,87.40
2023-02-10T23:26:47.398Z,87.60
2023-02-10T23:29:17.533Z,87.40
2023-02-10T23:31:46.104Z,85.70
2023-02-10T23:34:13.861Z,86.70
2023-02-10T23:36:41.703Z,87.00
2023-02-10T23:39:15.332Z,87.20
2023-02-10T23:41:47.289Z,86.60
2023-02-10T23:44:17.488Z,86.50
2023-02-10T23:46:44.491Z,87.00
2023-02-10T23:49:11.583Z,86.70
2023-02-10T23:51:38.772Z,86.80
2023-02-10T23:54:06.236Z,87.30
2023-02-10T23:56:33.517Z,87.60
2023-02-10T23:59:00.592Z,86.90
